Terminal Aerodrome Forecast
Issued by NWS Sterling, VA

Current Version | Previous Version | Graphics & Text | Print | Product List | Glossary On
Versions: 1 2 3 4 5 6 7 8 9 10 11 12 13 14 15 16 17 18 19 20 21 22 23
443
FTUS41 KLWX 180849 AAA
TAFIAD
TAF AMD
KIAD 180849Z 1809/1912 00000KT 5SM BR BKN025
     FM181000 00000KT 5SM BR BKN003
     FM181200 VRB03KT 5SM BR BKN010
     FM181700 04005KT P6SM BKN020
     FM181800 05007KT P6SM BKN035
     FM190800 36006KT P6SM SCT020
     FM191100 35006KT P6SM SCT010=

USA.gov is the U.S. government's official web portal to all federal, state and local government web resources and services.